Time;durP1;ratioP1;P1;durP2;ratioP2;P2;SDS_P1;SDS_P2;PMS_P1;PMS_P2;Temp;Humidity;BMP_temperature;BMP_pressure;BME280_temperature;BME280_humidity;BME280_pressure;Samples;Min_cycle;Max_cycle;Signal;HPM_P1;HPM_P2
2022/04/15 00:02:20;;;;;;;5.47;3.58;;;13.80;73.80;;;;;;5055662;28;20033;-81
2022/04/15 00:04:45;;;;;;;5.78;3.38;;;13.80;73.70;;;;;;5055512;28;20041;-77
2022/04/15 00:07:11;;;;;;;7.47;4.15;;;13.80;73.60;;;;;;5055294;28;20037;-77
2022/04/15 00:09:38;;;;;;;7.97;4.03;;;13.80;73.60;;;;;;5055566;28;20021;-81
2022/04/15 00:12:10;;;;;;;10.82;4.15;;;13.70;73.80;;;;;;5055389;28;20048;-79
2022/04/15 00:14:37;;;;;;;9.20;4.35;;;13.70;74.20;;;;;;5055985;28;20029;-80
2022/04/15 00:17:03;;;;;;;6.90;4.43;;;13.70;74.30;;;;;;5055301;28;20021;-77
2022/04/15 00:19:29;;;;;;;8.23;4.22;;;13.60;74.30;;;;;;5054984;28;20021;-75
2022/04/15 00:21:55;;;;;;;9.35;4.55;;;13.60;74.60;;;;;;5055435;28;20044;-78
2022/04/15 00:24:20;;;;;;;13.10;4.35;;;13.60;74.50;;;;;;5055007;28;20112;-78
2022/04/15 00:26:46;;;;;;;7.05;3.33;;;13.60;74.50;;;;;;5057440;28;20083;-78
2022/04/15 00:29:12;;;;;;;7.75;3.20;;;13.60;74.30;;;;;;5060302;28;20049;-74
2022/04/15 00:31:37;;;;;;;8.70;4.03;;;13.60;74.10;;;;;;5060253;28;20056;-74
2022/04/15 00:34:03;;;;;;;10.15;3.90;;;13.50;74.00;;;;;;5062476;28;20052;-75
2022/04/15 00:36:29;;;;;;;6.03;3.55;;;13.50;74.30;;;;;;5056957;28;20036;-74
2022/04/15 00:38:55;;;;;;;4.95;3.83;;;13.50;74.80;;;;;;5055545;28;20026;-77
2022/04/15 00:41:21;;;;;;;5.25;4.05;;;13.40;75.20;;;;;;5054753;28;20036;-75
2022/04/15 00:43:47;;;;;;;9.75;3.85;;;13.40;74.90;;;;;;5055422;28;20100;-78
2022/04/15 00:46:12;;;;;;;8.13;3.70;;;13.50;75.20;;;;;;5054800;28;20541;-74
2022/04/15 00:48:38;;;;;;;6.47;3.72;;;13.40;75.20;;;;;;5054744;28;20018;-78
2022/04/15 00:51:05;;;;;;;7.32;2.88;;;13.50;75.10;;;;;;5053886;28;20036;-76
2022/04/15 00:53:32;;;;;;;6.88;3.42;;;13.50;74.90;;;;;;5054553;28;20083;-75
2022/04/15 00:56:01;;;;;;;7.13;3.22;;;13.60;74.60;;;;;;5053975;28;20035;-75
2022/04/15 00:58:27;;;;;;;4.82;3.22;;;13.50;74.40;;;;;;5054219;28;20052;-77
2022/04/15 01:00:55;;;;;;;6.25;3.17;;;13.50;74.50;;;;;;5054560;28;20063;-74
2022/04/15 01:03:21;;;;;;;8.18;3.85;;;13.40;74.60;;;;;;5055310;28;20017;-87
2022/04/15 01:05:55;;;;;;;8.48;4.10;;;13.40;74.60;;;;;;5055503;28;20083;-87
2022/04/15 01:08:23;;;;;;;9.63;3.55;;;13.30;75.00;;;;;;5054922;28;20377;-86
2022/04/15 01:10:51;;;;;;;5.68;3.47;;;13.20;76.20;;;;;;5057473;28;20056;-76
2022/04/15 01:13:18;;;;;;;7.32;2.90;;;13.20;75.60;;;;;;5063164;28;20036;-87
2022/04/15 01:15:44;;;;;;;7.60;3.80;;;13.20;75.70;;;;;;5061568;28;20025;-86
2022/04/15 01:18:10;;;;;;;8.35;3.60;;;13.20;75.60;;;;;;5055724;28;20021;-86
2022/04/15 01:20:40;;;;;;;9.43;3.40;;;13.20;75.40;;;;;;5054745;28;20116;-86
2022/04/15 01:23:07;;;;;;;9.30;3.47;;;13.10;75.40;;;;;;5055060;28;20029;-88
2022/04/15 01:25:34;;;;;;;5.03;3.55;;;13.10;75.50;;;;;;5055749;28;20437;-87
2022/04/15 01:28:00;;;;;;;4.43;3.50;;;13.20;75.40;;;;;;5054988;28;20025;-84
2022/04/15 01:30:25;;;;;;;8.05;3.08;;;13.10;75.40;;;;;;5054809;28;20032;-83
2022/04/15 01:32:51;;;;;;;4.22;2.80;;;13.10;75.50;;;;;;5054471;28;20090;-81
2022/04/15 01:35:18;;;;;;;4.65;2.70;;;13.10;75.30;;;;;;5054360;28;20047;-79
2022/04/15 01:37:45;;;;;;;5.07;2.50;;;13.10;75.00;;;;;;5056392;28;20061;-82
2022/04/15 01:40:12;;;;;;;3.63;2.80;;;13.10;75.00;;;;;;5053912;28;20029;-79
2022/04/15 01:42:41;;;;;;;5.53;2.90;;;13.10;74.80;;;;;;5054690;28;20025;-81
2022/04/15 01:45:08;;;;;;;4.53;2.67;;;13.10;74.80;;;;;;5055102;28;20021;-82
2022/04/15 01:47:34;;;;;;;4.72;2.47;;;13.10;74.80;;;;;;5055128;28;20475;-82
2022/04/15 01:50:00;;;;;;;4.35;2.42;;;13.20;74.70;;;;;;5056856;28;20025;-87
2022/04/15 01:52:26;;;;;;;6.38;3.08;;;13.10;74.60;;;;;;5057480;28;20047;-88
2022/04/15 01:54:52;;;;;;;8.20;3.75;;;13.10;74.70;;;;;;5056662;28;20462;-86
2022/04/15 01:57:17;;;;;;;11.40;3.53;;;13.00;75.00;;;;;;5054410;28;20032;-87
2022/04/15 01:59:43;;;;;;;8.13;3.38;;;12.90;75.40;;;;;;5053553;28;20021;-86
2022/04/15 02:02:09;;;;;;;5.55;3.17;;;12.80;75.50;;;;;;5037630;28;20521;-87
2022/04/15 02:04:35;;;;;;;9.05;3.38;;;12.80;75.90;;;;;;5054167;28;20043;-87
2022/04/15 02:07:01;;;;;;;6.18;3.25;;;12.70;76.30;;;;;;5054264;28;20033;-86
2022/04/15 02:09:27;;;;;;;5.00;2.75;;;12.70;76.20;;;;;;5053875;28;20557;-86
2022/04/15 02:11:53;;;;;;;4.68;2.47;;;12.80;76.20;;;;;;5054132;28;20021;-87
2022/04/15 02:14:20;;;;;;;7.72;3.08;;;12.90;76.10;;;;;;5053965;28;20542;-87
2022/04/15 02:16:48;;;;;;;5.75;3.30;;;12.90;75.90;;;;;;5054997;28;20066;-87
2022/04/15 02:19:13;;;;;;;5.95;2.67;;;12.90;75.70;;;;;;5053590;28;20475;-86
2022/04/15 02:21:39;;;;;;;4.13;2.70;;;12.90;75.40;;;;;;5053693;28;20037;-86
2022/04/15 02:24:06;;;;;;;10.55;4.50;;;12.90;75.30;;;;;;5054142;28;20025;-86
2022/04/15 02:26:31;;;;;;;5.82;3.67;;;12.80;75.40;;;;;;5053357;28;20029;-87
2022/04/15 02:28:58;;;;;;;10.88;4.43;;;12.80;75.80;;;;;;5056661;28;20493;-88
2022/04/15 02:31:24;;;;;;;6.55;3.10;;;12.80;75.70;;;;;;5057974;28;20029;-88
2022/04/15 02:33:49;;;;;;;5.80;3.42;;;12.80;75.90;;;;;;5060699;28;20044;-86
2022/04/15 02:36:16;;;;;;;8.55;3.55;;;12.80;76.00;;;;;;5059135;28;20056;-85
2022/04/15 02:38:42;;;;;;;6.68;2.88;;;12.70;76.00;;;;;;5058663;28;20097;-84
2022/04/15 02:41:07;;;;;;;6.90;2.80;;;12.70;76.10;;;;;;5057028;28;20075;-87
2022/04/15 02:43:33;;;;;;;5.68;2.42;;;12.70;76.30;;;;;;5054939;28;20051;-86
2022/04/15 02:46:04;;;;;;;5.60;2.60;;;12.70;76.20;;;;;;5057275;28;20035;-86
2022/04/15 02:48:30;;;;;;;6.15;3.08;;;12.70;76.10;;;;;;5059762;28;20017;-87
2022/04/15 02:50:56;;;;;;;9.02;3.22;;;12.70;76.00;;;;;;5063425;28;20027;-81
2022/04/15 02:53:23;;;;;;;4.35;3.03;;;12.70;76.00;;;;;;5056295;28;20024;-76
2022/04/15 02:55:49;;;;;;;4.10;2.65;;;12.70;76.80;;;;;;5053013;28;20029;-86
2022/04/15 02:58:15;;;;;;;3.78;2.25;;;12.70;75.90;;;;;;5054225;28;20078;-85
2022/04/15 03:00:41;;;;;;;5.65;3.55;;;12.70;76.00;;;;;;5052025;28;20045;-82
2022/04/15 03:03:07;;;;;;;4.38;3.35;;;12.70;76.00;;;;;;5052557;28;20544;-76
2022/04/15 03:05:33;;;;;;;7.70;4.25;;;12.70;76.10;;;;;;5051982;28;20471;-81
2022/04/15 03:07:58;;;;;;;5.07;3.78;;;12.70;76.20;;;;;;5052099;28;20099;-77
2022/04/15 03:10:24;;;;;;;9.93;4.53;;;12.80;76.00;;;;;;5035471;28;20055;-73
2022/04/15 03:12:50;;;;;;;7.03;3.72;;;12.80;75.70;;;;;;5053395;28;20037;-76
2022/04/15 03:15:16;;;;;;;7.20;3.25;;;12.90;75.50;;;;;;5052129;28;20021;-80
2022/04/15 03:17:42;;;;;;;8.30;3.38;;;12.80;75.50;;;;;;5053599;28;20036;-75
2022/04/15 03:20:08;;;;;;;7.50;3.65;;;12.80;75.50;;;;;;5051643;28;20025;-79
2022/04/15 03:22:39;;;;;;;5.65;2.85;;;12.90;75.30;;;;;;5052071;28;20056;-80
2022/04/15 03:25:06;;;;;;;7.32;2.72;;;12.90;75.30;;;;;;5052089;28;20021;-80
2022/04/15 03:27:32;;;;;;;5.68;3.00;;;12.90;75.20;;;;;;5052095;28;20025;-80
2022/04/15 03:29:58;;;;;;;5.43;2.40;;;12.90;75.10;;;;;;5052161;28;20036;-84
2022/04/15 03:32:24;;;;;;;5.25;2.60;;;12.90;75.00;;;;;;5052019;28;20052;-77
2022/04/15 03:34:54;;;;;;;5.68;3.08;;;12.90;74.90;;;;;;5051952;28;20063;-77
2022/04/15 03:37:19;;;;;;;9.00;3.10;;;13.00;74.90;;;;;;5051624;28;20043;-76
2022/04/15 03:39:45;;;;;;;5.28;2.72;;;13.00;74.90;;;;;;5051798;28;20478;-80
2022/04/15 03:42:11;;;;;;;4.03;2.72;;;12.90;75.00;;;;;;5053919;28;20033;-80
2022/04/15 03:44:37;;;;;;;5.95;2.50;;;12.90;75.30;;;;;;5060376;28;20026;-83
2022/04/15 03:47:06;;;;;;;9.32;2.88;;;12.90;75.40;;;;;;5058006;28;20037;-82
2022/04/15 03:49:32;;;;;;;5.05;2.78;;;12.90;75.50;;;;;;5052791;28;20032;-82
2022/04/15 03:51:58;;;;;;;4.10;3.25;;;12.90;75.30;;;;;;5052583;28;20029;-83
2022/04/15 03:54:24;;;;;;;5.22;3.17;;;12.90;75.40;;;;;;5051821;28;20027;-85
2022/04/15 03:56:49;;;;;;;4.93;2.88;;;12.90;75.30;;;;;;5051401;28;20028;-84
2022/04/15 03:59:15;;;;;;;3.90;2.97;;;12.90;75.40;;;;;;5051873;28;20489;-81
2022/04/15 04:01:41;;;;;;;5.30;2.70;;;12.90;75.30;;;;;;5051854;28;20040;-85
2022/04/15 04:04:07;;;;;;;4.00;2.80;;;13.00;75.20;;;;;;5051738;28;20025;-77
2022/04/15 04:06:33;;;;;;;5.00;3.10;;;13.00;75.10;;;;;;5051361;28;20513;-77
2022/04/15 04:08:58;;;;;;;4.88;3.03;;;13.00;74.90;;;;;;5051382;28;20079;-84
2022/04/15 04:11:24;;;;;;;10.35;3.67;;;13.00;75.00;;;;;;5052005;28;20028;-85
2022/04/15 04:13:49;;;;;;;4.80;2.70;;;13.00;75.10;;;;;;5051097;28;20116;-81
2022/04/15 04:16:17;;;;;;;4.65;3.03;;;13.00;75.00;;;;;;5051306;28;20501;-80
2022/04/15 04:18:43;;;;;;;7.15;2.97;;;12.90;75.10;;;;;;5051122;28;20088;-76
2022/04/15 04:21:09;;;;;;;6.05;3.00;;;12.90;75.40;;;;;;5051826;28;20037;-88
2022/04/15 04:23:35;;;;;;;7.68;3.67;;;12.80;75.30;;;;;;5052614;28;20029;-89
2022/04/15 04:26:02;;;;;;;9.40;3.47;;;12.70;76.70;;;;;;5052991;28;20046;-88
2022/04/15 04:28:28;;;;;;;7.38;3.17;;;12.70;76.30;;;;;;5055896;28;20024;-89
2022/04/15 04:30:53;;;;;;;8.07;3.15;;;12.60;76.40;;;;;;5055605;28;20363;-89
2022/04/15 04:33:19;;;;;;;4.68;2.85;;;12.60;76.60;;;;;;5055741;28;20378;-84
2022/04/15 04:35:45;;;;;;;7.18;3.17;;;12.60;76.60;;;;;;5055711;28;20123;-85
2022/04/15 04:38:11;;;;;;;5.60;3.50;;;12.60;76.50;;;;;;5055376;28;20498;-78
2022/04/15 04:40:37;;;;;;;5.20;3.42;;;12.50;76.50;;;;;;5055027;28;20033;-83
2022/04/15 04:43:04;;;;;;;5.15;3.53;;;12.50;76.70;;;;;;5055145;28;20026;-80
2022/04/15 04:45:31;;;;;;;7.32;3.90;;;12.50;76.90;;;;;;5055316;28;20021;-85
2022/04/15 04:48:00;;;;;;;6.55;4.15;;;12.50;76.90;;;;;;5055051;28;20028;-83
2022/04/15 04:50:26;;;;;;;11.25;5.10;;;12.60;76.90;;;;;;5054889;28;20112;-85
2022/04/15 04:52:52;;;;;;;6.70;4.63;;;12.60;76.70;;;;;;5055051;28;20040;-87
2022/04/15 04:55:18;;;;;;;8.88;4.78;;;12.60;76.50;;;;;;5054544;28;20037;-84
2022/04/15 04:57:45;;;;;;;8.20;3.90;;;12.60;76.40;;;;;;5055143;28;20025;-86
2022/04/15 05:00:12;;;;;;;5.32;3.30;;;12.60;76.40;;;;;;5055439;28;20052;-88
2022/04/15 05:02:39;;;;;;;4.85;2.80;;;12.60;76.20;;;;;;5056256;28;20124;-79
2022/04/15 05:05:06;;;;;;;6.28;3.05;;;12.70;76.10;;;;;;5055024;28;20512;-81
2022/04/15 05:07:32;;;;;;;4.47;3.08;;;12.60;76.10;;;;;;5059289;28;20150;-75
2022/04/15 05:09:57;;;;;;;3.95;2.85;;;12.60;77.20;;;;;;5063942;28;20044;-80
2022/04/15 05:12:23;;;;;;;6.47;2.95;;;12.60;76.30;;;;;;5063285;28;20024;-77
2022/04/15 05:14:49;;;;;;;7.63;3.30;;;12.60;76.30;;;;;;5063652;28;20021;-77
2022/04/15 05:17:15;;;;;;;7.00;3.40;;;12.60;76.40;;;;;;5054869;28;20021;-80
2022/04/15 05:19:41;;;;;;;4.45;3.03;;;12.60;76.50;;;;;;5054269;28;20082;-77
2022/04/15 05:22:08;;;;;;;3.40;2.78;;;12.60;76.50;;;;;;5053781;28;20036;-76
2022/04/15 05:24:34;;;;;;;6.22;2.78;;;12.60;76.60;;;;;;5053990;28;20512;-77
2022/04/15 05:27:00;;;;;;;5.60;3.38;;;12.60;76.40;;;;;;5054370;28;20029;-81
2022/04/15 05:29:26;;;;;;;5.00;3.00;;;12.60;76.40;;;;;;5054830;28;20111;-78
2022/04/15 05:31:51;;;;;;;6.18;3.00;;;12.60;76.40;;;;;;5053907;28;20020;-81
2022/04/15 05:34:17;;;;;;;4.43;2.88;;;12.60;76.40;;;;;;5055152;28;20029;-79
2022/04/15 05:36:42;;;;;;;8.85;2.67;;;12.50;76.50;;;;;;5059292;28;20025;-76
2022/04/15 05:39:08;;;;;;;5.22;3.25;;;12.60;76.60;;;;;;5059842;28;20102;-79
2022/04/15 05:41:33;;;;;;;4.43;3.03;;;12.70;76.60;;;;;;5036682;28;20045;-79
2022/04/15 05:43:59;;;;;;;4.50;3.42;;;12.60;76.50;;;;;;5053764;28;20104;-75
2022/04/15 05:46:28;;;;;;;5.97;3.10;;;12.60;76.40;;;;;;5053422;28;20021;-79
2022/04/15 05:48:54;;;;;;;5.43;3.03;;;12.70;76.40;;;;;;5053105;28;20029;-79
2022/04/15 05:51:19;;;;;;;4.45;3.03;;;12.70;76.50;;;;;;5053019;28;20075;-80
2022/04/15 05:53:45;;;;;;;5.57;3.30;;;12.80;76.30;;;;;;5053359;28;20025;-78
2022/04/15 05:56:11;;;;;;;4.72;3.50;;;12.80;76.30;;;;;;5036822;28;20090;-78
2022/04/15 05:58:37;;;;;;;6.32;3.78;;;12.80;76.20;;;;;;5053164;28;20062;-78
2022/04/15 06:01:05;;;;;;;4.18;3.00;;;12.80;76.30;;;;;;5052963;28;20025;-79
2022/04/15 06:03:34;;;;;;;7.43;4.25;;;12.90;76.40;;;;;;5053220;28;20025;-75
2022/04/15 06:06:00;;;;;;;5.20;3.30;;;12.90;76.60;;;;;;5052586;28;20064;-79
2022/04/15 06:08:26;;;;;;;7.70;3.72;;;13.00;76.40;;;;;;5053336;28;20027;-80
2022/04/15 06:10:52;;;;;;;4.47;3.83;;;13.00;76.30;;;;;;5052626;28;20112;-78
2022/04/15 06:13:22;;;;;;;5.68;4.18;;;13.10;76.30;;;;;;5052999;28;20028;-77
2022/04/15 06:15:55;;;;;;;8.02;4.45;;;13.10;76.20;;;;;;5053506;28;20033;-81
2022/04/15 06:18:22;;;;;;;5.75;4.07;;;13.20;76.10;;;;;;5053320;28;20025;-82
2022/04/15 06:20:48;;;;;;;8.93;4.10;;;13.20;75.90;;;;;;5052965;28;20036;-80
2022/04/15 06:23:14;;;;;;;5.90;4.28;;;13.30;75.80;;;;;;5052879;28;20025;-78
2022/04/15 06:25:41;;;;;;;6.95;4.03;;;13.40;75.50;;;;;;5052651;28;20463;-79
2022/04/15 06:28:07;;;;;;;5.72;4.55;;;13.60;75.10;;;;;;5052381;28;20025;-77
2022/04/15 06:30:33;;;;;;;6.65;4.03;;;13.70;74.90;;;;;;5052108;28;20025;-78
2022/04/15 06:32:58;;;;;;;8.88;4.80;;;13.70;74.60;;;;;;5052503;28;20025;-79
2022/04/15 06:35:24;;;;;;;9.32;5.78;;;13.80;74.00;;;;;;5052397;28;20021;-78
2022/04/15 06:37:49;;;;;;;8.50;5.38;;;13.80;73.60;;;;;;5052390;28;20120;-75
2022/04/15 06:40:15;;;;;;;6.88;5.15;;;13.80;73.90;;;;;;5051741;28;20021;-75
2022/04/15 06:42:40;;;;;;;6.03;4.72;;;13.90;73.80;;;;;;5052315;28;20083;-75
2022/04/15 06:45:06;;;;;;;10.77;4.95;;;14.00;73.40;;;;;;5052021;28;20029;-81
2022/04/15 06:47:33;;;;;;;6.20;4.15;;;14.10;73.00;;;;;;5052043;28;20098;-76
2022/04/15 06:49:58;;;;;;;6.03;4.70;;;14.30;73.40;;;;;;5051461;28;20359;-76
2022/04/15 06:52:24;;;;;;;7.85;4.80;;;14.40;71.90;;;;;;5052456;28;20079;-75
2022/04/15 06:54:49;;;;;;;8.05;4.20;;;14.50;71.50;;;;;;5035482;28;20040;-78
2022/04/15 06:57:15;;;;;;;10.10;4.57;;;14.60;71.40;;;;;;5051695;28;20459;-80
2022/04/15 06:59:41;;;;;;;7.68;4.32;;;14.80;71.90;;;;;;5052285;28;20021;-78
2022/04/15 07:02:07;;;;;;;9.50;5.25;;;14.90;70.60;;;;;;5052014;28;20415;-74
2022/04/15 07:04:33;;;;;;;13.02;6.15;;;15.10;70.00;;;;;;5052048;28;20025;-76
2022/04/15 07:06:59;;;;;;;8.38;5.65;;;15.10;69.60;;;;;;5051528;28;20048;-75
2022/04/15 07:09:25;;;;;;;9.75;6.28;;;15.20;69.30;;;;;;5052113;28;20024;-75
2022/04/15 07:11:51;;;;;;;10.27;5.97;;;15.30;69.10;;;;;;5051960;28;20390;-75
2022/04/15 07:14:18;;;;;;;11.48;6.72;;;15.30;68.90;;;;;;5052179;28;20454;-74
2022/04/15 07:16:43;;;;;;;11.32;6.05;;;15.30;68.80;;;;;;5051851;28;20036;-76
2022/04/15 07:19:09;;;;;;;11.23;5.82;;;15.30;68.90;;;;;;5052155;28;20025;-79
2022/04/15 07:21:36;;;;;;;9.70;5.85;;;15.40;68.70;;;;;;5051701;28;20124;-79
2022/04/15 07:24:03;;;;;;;14.73;7.30;;;15.40;68.70;;;;;;5053479;28;20036;-76
2022/04/15 07:26:29;;;;;;;16.98;8.52;;;15.30;69.50;;;;;;5052626;28;20029;-74
2022/04/15 07:28:55;;;;;;;7.95;5.30;;;15.40;69.20;;;;;;5051693;28;20087;-74
2022/04/15 07:31:20;;;;;;;15.75;7.35;;;15.40;69.30;;;;;;5051367;28;20422;-74
2022/04/15 07:33:46;;;;;;;18.63;9.20;;;15.60;68.50;;;;;;5051529;28;20028;-74
2022/04/15 07:38:57;;;;;;;12.33;7.77;;;15.60;67.30;;;;;;5052883;28;20032;-75
2022/04/15 07:41:23;;;;;;;14.43;8.57;;;15.20;68.90;;;;;;5051239;28;20037;-75
2022/04/15 07:43:49;;;;;;;10.57;7.43;;;15.00;69.40;;;;;;5051202;28;20025;-74
2022/04/15 07:46:15;;;;;;;11.05;7.10;;;15.00;69.50;;;;;;5050928;28;20065;-74
2022/04/15 07:48:41;;;;;;;11.27;6.90;;;15.30;69.10;;;;;;5051533;28;20398;-74
2022/04/15 07:51:08;;;;;;;11.15;8.15;;;15.40;68.30;;;;;;5051364;28;20025;-74
2022/04/15 07:53:33;;;;;;;16.67;8.68;;;15.60;67.50;;;;;;5051420;28;20364;-77
2022/04/15 07:55:59;;;;;;;11.95;8.35;;;15.70;66.60;;;;;;5051593;28;20079;-73
2022/04/15 07:58:24;;;;;;;16.15;8.32;;;15.90;66.50;;;;;;5051172;28;20063;-75
2022/04/15 08:00:50;;;;;;;10.60;8.15;;;16.00;66.50;;;;;;5053061;28;20029;-77
2022/04/15 08:03:20;;;;;;;14.15;8.65;;;16.10;65.80;;;;;;5062030;28;20061;-74
2022/04/15 08:05:46;;;;;;;14.93;9.02;;;16.00;65.70;;;;;;5059199;28;20040;-76
2022/04/15 08:08:13;;;;;;;10.57;7.90;;;15.80;66.80;;;;;;5059239;28;20115;-74
2022/04/15 08:10:39;;;;;;;17.75;9.30;;;16.00;66.10;;;;;;5065959;28;20017;-82
2022/04/15 08:13:06;;;;;;;15.93;5.45;;;16.20;65.90;;;;;;5070381;28;20029;-78
2022/04/15 08:15:32;;;;;;;13.43;6.78;;;16.50;70.10;;;;;;5071807;28;20013;-77
2022/04/15 08:17:58;;;;;;;12.00;9.70;;;16.90;67.20;;;;;;5079274;28;20073;-76
2022/04/15 08:20:23;;;;;;;15.05;9.70;;;16.90;62.80;;;;;;5078988;28;20049;-78
2022/04/15 08:22:49;;;;;;;12.80;9.45;;;16.90;63.50;;;;;;5079420;28;20036;-78
2022/04/15 08:25:15;;;;;;;18.73;10.25;;;16.60;63.40;;;;;;5063687;28;20025;-78
2022/04/15 08:27:41;;;;;;;18.48;9.23;;;16.50;65.40;;;;;;5054928;28;20536;-79
2022/04/15 08:30:07;;;;;;;14.63;8.98;;;16.50;64.90;;;;;;5054504;28;20028;-78
2022/04/15 08:32:35;;;;;;;16.33;8.82;;;16.80;64.00;;;;;;5055346;28;20107;-78
2022/04/15 08:35:06;;;;;;;16.45;9.70;;;17.00;62.30;;;;;;5057067;28;20112;-78
2022/04/15 08:37:33;;;;;;;13.77;8.88;;;17.30;60.90;;;;;;5058451;28;20028;-78
2022/04/15 08:40:00;;;;;;;9.95;6.82;;;17.40;59.20;;;;;;5060075;28;20025;-77
2022/04/15 08:42:26;;;;;;;18.02;9.07;;;17.50;59.60;;;;;;5056319;28;20461;-78
2022/04/15 08:44:54;;;;;;;14.38;9.25;;;17.70;58.30;;;;;;5054963;28;20048;-78
2022/04/15 08:47:20;;;;;;;14.25;9.45;;;17.70;56.90;;;;;;5054422;28;20028;-78
2022/04/15 08:49:47;;;;;;;15.57;9.73;;;17.70;58.70;;;;;;5054286;28;20074;-78
2022/04/15 08:52:15;;;;;;;12.63;7.80;;;17.60;57.20;;;;;;5054215;28;20475;-78
2022/04/15 08:54:41;;;;;;;17.13;11.00;;;17.70;58.10;;;;;;5054479;28;20029;-78
2022/04/15 08:57:07;;;;;;;13.63;8.43;;;17.90;56.90;;;;;;5054278;28;20112;-77
2022/04/15 08:59:33;;;;;;;13.88;9.40;;;18.00;56.30;;;;;;5054036;28;20367;-77
2022/04/15 09:01:59;;;;;;;9.40;7.93;;;18.20;55.20;;;;;;5053978;28;20048;-76
2022/04/15 09:04:25;;;;;;;11.73;8.13;;;18.00;56.10;;;;;;5053979;28;20029;-77
2022/04/15 09:06:56;;;;;;;12.43;8.68;;;18.00;55.60;;;;;;5053738;28;20550;-75
2022/04/15 09:09:31;;;;;;;12.32;8.27;;;18.10;56.20;;;;;;5053883;28;20029;-75
2022/04/15 09:11:58;;;;;;;14.38;9.88;;;18.40;54.70;;;;;;5053192;28;20025;-75
2022/04/15 09:14:25;;;;;;;11.02;8.30;;;18.30;53.50;;;;;;5053715;28;20029;-76
2022/04/15 09:16:52;;;;;;;7.28;5.88;;;18.30;55.80;;;;;;5053944;28;20485;-76
2022/04/15 09:19:19;;;;;;;12.05;7.90;;;18.60;54.20;;;;;;5053876;28;20059;-76
2022/04/15 09:21:52;;;;;;;13.30;7.97;;;18.80;49.90;;;;;;5053358;28;20124;-76
2022/04/15 09:24:26;;;;;;;12.38;8.05;;;18.80;50.00;;;;;;5053673;28;20501;-85
2022/04/15 09:26:53;;;;;;;11.30;7.35;;;18.70;49.90;;;;;;5054454;28;20132;-86
2022/04/15 09:29:21;;;;;;;13.13;7.80;;;18.90;49.30;;;;;;5053520;28;20075;-85
2022/04/15 09:31:47;;;;;;;12.70;8.38;;;18.80;48.10;;;;;;5053994;28;20382;-86
2022/04/15 09:34:12;;;;;;;9.73;7.00;;;18.50;50.90;;;;;;5053709;28;20017;-85
2022/04/15 09:36:40;;;;;;;10.45;7.03;;;18.60;52.40;;;;;;5053705;28;20025;-86
2022/04/15 09:39:16;;;;;;;12.35;9.45;;;18.80;50.90;;;;;;5053398;28;20036;-86
2022/04/15 09:41:56;;;;;;;13.10;9.07;;;18.80;49.80;;;;;;5054716;28;20037;-86
2022/04/15 09:44:31;;;;;;;12.10;9.02;;;18.80;50.00;;;;;;5054750;28;20442;-86
2022/04/15 09:46:58;;;;;;;11.93;8.38;;;18.80;50.40;;;;;;5053873;28;20071;-85
2022/04/15 09:49:25;;;;;;;8.52;6.53;;;19.00;49.20;;;;;;5053720;28;20474;-84
2022/04/15 09:51:53;;;;;;;12.10;8.50;;;19.30;49.10;;;;;;5037180;28;20487;-86
2022/04/15 09:54:24;;;;;;;9.82;7.45;;;19.50;45.70;;;;;;5053406;28;20021;-86
2022/04/15 09:56:52;;;;;;;9.27;6.97;;;19.70;45.30;;;;;;5053537;28;20103;-85
2022/04/15 09:59:24;;;;;;;10.02;7.15;;;19.90;45.30;;;;;;5053292;28;20032;-87
2022/04/15 10:01:54;;;;;;;8.02;5.95;;;20.10;44.90;;;;;;5053362;28;20029;-84
2022/04/15 10:04:22;;;;;;;7.13;5.55;;;19.80;43.00;;;;;;5053349;28;20069;-82
2022/04/15 10:06:50;;;;;;;9.02;7.03;;;19.70;42.80;;;;;;5053423;28;20033;-85
2022/04/15 10:09:15;;;;;;;7.60;6.10;;;19.80;41.90;;;;;;5053370;28;20071;-80
2022/04/15 10:11:45;;;;;;;12.82;7.13;;;19.50;42.80;;;;;;5053516;28;20025;-83
2022/04/15 10:14:13;;;;;;;10.05;5.43;;;19.70;42.60;;;;;;5053019;28;20493;-85
2022/04/15 10:16:42;;;;;;;5.25;4.55;;;20.00;42.20;;;;;;5053813;28;20033;-88
2022/04/15 10:19:09;;;;;;;9.65;5.60;;;20.40;41.60;;;;;;5054343;28;20047;-89
2022/04/15 10:21:39;;;;;;;7.25;5.18;;;20.60;40.40;;;;;;5054546;28;20036;-89
2022/04/15 10:24:08;;;;;;;5.53;4.50;;;20.70;40.30;;;;;;5053544;28;20035;-89
2022/04/15 10:26:42;;;;;;;7.10;4.13;;;20.90;40.40;;;;;;5054070;28;20029;-91
2022/04/15 10:29:09;;;;;;;9.75;6.03;;;21.30;41.30;;;;;;5054261;28;20031;-90
2022/04/15 10:31:45;;;;;;;7.75;5.85;;;21.30;40.10;;;;;;5054267;28;20033;-92
2022/04/15 10:34:14;;;;;;;7.05;4.50;;;21.40;39.80;;;;;;5055044;28;20017;-91
2022/04/15 10:36:47;;;;;;;6.03;4.47;;;21.40;39.20;;;;;;5054201;28;20032;-90
2022/04/15 10:39:15;;;;;;;5.35;4.50;;;21.00;39.00;;;;;;5054442;28;20021;-89
2022/04/15 10:41:41;;;;;;;5.93;4.38;;;21.10;39.50;;;;;;5053981;28;20389;-87
2022/04/15 10:44:10;;;;;;;4.88;3.85;;;20.90;37.50;;;;;;5054109;28;20107;-89
2022/04/15 10:46:36;;;;;;;10.82;3.70;;;20.70;37.00;;;;;;5053720;28;20021;-88
2022/04/15 10:49:19;;;;;;;6.03;3.05;;;20.90;38.30;;;;;;5054658;28;20067;-88
2022/04/15 10:51:45;;;;;;;7.55;4.07;;;21.10;37.60;;;;;;5053022;28;20036;-87
2022/04/15 10:54:36;;;;;;;6.35;4.05;;;21.40;36.60;;;;;;5052316;28;20029;-85
2022/04/15 10:57:10;;;;;;;4.07;2.70;;;21.70;36.20;;;;;;5051612;28;20548;-84
2022/04/15 11:02:40;;;;;;;7.30;3.72;;;22.30;35.90;;;;;;5052880;28;20059;-79
2022/04/15 11:05:08;;;;;;;6.13;3.50;;;22.50;32.90;;;;;;5051480;28;20094;-80
2022/04/15 11:07:41;;;;;;;5.57;3.70;;;22.50;31.90;;;;;;5035503;28;20033;-81
2022/04/15 11:10:16;;;;;;;5.32;3.47;;;22.10;32.60;;;;;;5051700;28;20025;-81
2022/04/15 11:12:44;;;;;;;4.57;3.30;;;21.50;33.50;;;;;;5051594;28;20025;-81
2022/04/15 11:15:10;;;;;;;5.15;3.38;;;21.50;32.80;;;;;;5051520;28;20040;-84
2022/04/15 11:17:38;;;;;;;4.80;2.60;;;21.50;32.10;;;;;;5052040;28;20494;-84
2022/04/15 11:20:06;;;;;;;3.85;3.08;;;21.30;33.90;;;;;;5052226;28;20036;-86
2022/04/15 11:22:36;;;;;;;3.83;3.33;;;21.20;33.50;;;;;;5051989;28;20033;-87
2022/04/15 11:25:02;;;;;;;2.97;2.47;;;21.20;33.00;;;;;;5062563;28;20115;-88
2022/04/15 11:27:29;;;;;;;5.57;3.83;;;21.60;33.30;;;;;;5061129;28;20471;-87
2022/04/15 11:29:56;;;;;;;7.80;4.13;;;21.70;33.30;;;;;;5036236;28;20029;-84
2022/04/15 11:32:22;;;;;;;5.00;3.50;;;21.60;33.60;;;;;;5054354;28;20027;-88
2022/04/15 11:34:54;;;;;;;5.07;3.28;;;21.50;33.80;;;;;;5060556;28;20115;-87
2022/04/15 11:37:20;;;;;;;5.93;3.45;;;21.70;33.40;;;;;;5056336;28;20048;-86
2022/04/15 11:39:47;;;;;;;4.15;2.80;;;22.00;33.70;;;;;;5056041;28;20020;-86
2022/04/15 11:42:14;;;;;;;4.72;3.67;;;22.20;32.80;;;;;;5039724;28;20116;-80
2022/04/15 11:44:42;;;;;;;6.18;4.00;;;22.10;32.00;;;;;;5056347;28;20029;-87
2022/04/15 11:47:19;;;;;;;4.78;3.67;;;21.90;32.50;;;;;;5056016;28;20032;-86
2022/04/15 11:49:46;;;;;;;4.45;2.47;;;21.90;32.30;;;;;;5056075;28;20506;-85
2022/04/15 11:52:22;;;;;;;5.97;2.63;;;22.00;32.20;;;;;;5055906;28;20025;-87
2022/04/15 11:54:48;;;;;;;5.35;3.70;;;22.00;33.30;;;;;;5055994;28;20029;-87
2022/04/15 11:57:13;;;;;;;5.82;3.60;;;22.30;33.10;;;;;;5056259;28;20021;-87
2022/04/15 11:59:47;;;;;;;6.80;4.68;;;22.70;32.50;;;;;;5059006;28;20075;-87
2022/04/15 12:02:18;;;;;;;6.65;5.07;;;22.90;31.40;;;;;;5056195;28;20033;-86
2022/04/15 12:04:55;;;;;;;6.95;4.57;;;22.90;31.00;;;;;;5056728;28;20043;-87
2022/04/15 12:07:21;;;;;;;5.93;5.13;;;22.70;30.90;;;;;;5057270;28;20025;-87
2022/04/15 12:09:48;;;;;;;5.53;3.30;;;22.50;31.90;;;;;;5056150;28;20508;-86
2022/04/15 12:12:15;;;;;;;6.10;4.28;;;22.70;32.00;;;;;;5056022;28;20037;-86
2022/04/15 12:14:41;;;;;;;6.30;4.13;;;22.90;32.80;;;;;;5056341;28;20049;-87
2022/04/15 12:17:08;;;;;;;7.65;5.20;;;23.00;32.80;;;;;;5056060;28;20417;-85
2022/04/15 12:19:34;;;;;;;10.52;5.18;;;22.70;32.40;;;;;;5055957;28;20025;-84
2022/04/15 12:22:02;;;;;;;8.30;4.03;;;22.60;33.30;;;;;;5055221;28;20037;-82
2022/04/15 12:24:31;;;;;;;7.22;5.30;;;22.50;33.70;;;;;;5055795;28;20074;-85
2022/04/15 12:27:01;;;;;;;8.35;5.72;;;22.30;33.80;;;;;;5055369;28;20028;-86
2022/04/15 12:29:47;;;;;;;6.03;3.70;;;22.00;33.90;;;;;;5055495;28;20018;-86
2022/04/15 12:32:35;;;;;;;;;;;21.90;34.40;;;;;;5056543;28;20025;-86
2022/04/15 12:35:01;;;;;;;8.05;5.10;;;22.10;34.60;;;;;;5055814;28;19905;-86
2022/04/15 12:37:46;;;;;;;7.05;5.28;;;22.10;34.90;;;;;;5055616;28;20033;-85
2022/04/15 12:40:14;;;;;;;5.65;4.35;;;22.50;33.70;;;;;;5055179;28;20074;-85
2022/04/15 12:42:42;;;;;;;6.75;4.13;;;22.50;33.70;;;;;;5055107;28;20037;-81
2022/04/15 12:45:09;;;;;;;8.57;4.50;;;23.00;33.20;;;;;;5054826;28;20079;-85
2022/04/15 12:47:35;;;;;;;5.95;4.15;;;23.70;32.70;;;;;;5053969;28;20036;-85
2022/04/15 12:50:25;;;;;;;5.28;3.33;;;24.30;30.90;;;;;;5054220;28;20107;-74
2022/04/15 12:52:55;;;;;;;4.18;3.30;;;24.90;29.10;;;;;;5046845;28;20040;-74